TimeCST,TemperatureF,Dew PointF,Humidity,Sea Level PressureIn,VisibilityMPH,Wind Direction,Wind SpeedMPH,Gust SpeedMPH,PrecipitationIn,Events,Conditions,WindDirDegrees,DateUTC
12:55 AM,28.4,25.0,87,30.38,10.0,Calm,Calm,-,N/A,,Mostly Cloudy,0,2013-01-05 06:55:00
1:55 AM,30.9,27.5,87,30.38,10.0,Calm,Calm,-,N/A,,Overcast,0,2013-01-05 07:55:00
2:55 AM,32.4,28.4,85,30.36,10.0,Calm,Calm,-,N/A,,Overcast,0,2013-01-05 08:55:00
3:55 AM,32.7,29.1,87,30.39,10.0,West,3.5,-,N/A,,Overcast,270,2013-01-05 09:55:00
4:55 AM,34.0,30.2,86,30.39,10.0,WSW,4.6,-,N/A,,Overcast,250,2013-01-05 10:55:00
5:27 AM,33.8,30.2,87,30.38,10.0,Calm,Calm,-,N/A,Rain,Light Rain,0,2013-01-05 11:27:00
5:37 AM,33.8,30.2,87,30.38,10.0,Calm,Calm,-,N/A,Rain,Light Rain,0,2013-01-05 11:37:00
5:49 AM,33.8,30.2,87,30.38,10.0,Calm,Calm,-,N/A,,Partly Cloudy,0,2013-01-05 11:49:00
5:55 AM,34.2,30.7,87,30.38,10.0,Calm,Calm,-,0.00,,Scattered Clouds,0,2013-01-05 11:55:00
6:00 AM,33.8,32.0,93,30.40,10.0,Calm,Calm,-,N/A,Rain,Light Rain,0,2013-01-05 12:00:00
6:13 AM,33.8,32.0,93,30.41,10.0,Calm,Calm,-,N/A,,Mostly Cloudy,0,2013-01-05 12:13:00
6:18 AM,33.8,32.0,93,30.40,10.0,Calm,Calm,-,N/A,Rain,Light Rain,0,2013-01-05 12:18:00
6:33 AM,33.8,32.0,93,30.40,10.0,Calm,Calm,-,N/A,,Overcast,0,2013-01-05 12:33:00
6:55 AM,34.7,32.5,92,30.39,10.0,Calm,Calm,-,0.00,,Overcast,0,2013-01-05 12:55:00
7:20 AM,35.6,32.0,87,30.40,10.0,Calm,Calm,-,N/A,Rain,Light Rain,0,2013-01-05 13:20:00
7:32 AM,35.6,33.8,93,30.40,10.0,Calm,Calm,-,N/A,,Mostly Cloudy,0,2013-01-05 13:32:00
7:55 AM,36.0,32.9,89,30.40,10.0,Calm,Calm,-,0.00,,Mostly Cloudy,0,2013-01-05 13:55:00
8:55 AM,37.9,33.6,84,30.38,10.0,NNE,3.5,-,N/A,,Mostly Cloudy,20,2013-01-05 14:55:00
9:55 AM,41.0,33.8,76,30.39,10.0,Calm,Calm,-,N/A,Rain,Light Rain,0,2013-01-05 15:55:00
10:06 AM,42.8,33.8,70,30.38,10.0,Calm,Calm,-,N/A,,Overcast,0,2013-01-05 16:06:00
10:55 AM,43.7,34.2,69,30.37,10.0,Calm,Calm,-,0.00,,Overcast,0,2013-01-05 16:55:00
11:55 AM,45.3,33.3,63,30.33,10.0,Calm,Calm,-,N/A,,Overcast,0,2013-01-05 17:55:00
12:55 PM,47.1,32.5,57,30.29,10.0,SSE,5.8,-,N/A,,Overcast,160,2013-01-05 18:55:00
1:55 PM,48.4,31.5,52,30.27,10.0,South,8.1,-,N/A,,Overcast,190,2013-01-05 19:55:00
2:55 PM,48.9,32.2,52,30.26,10.0,SW,9.2,-,N/A,,Overcast,220,2013-01-05 20:55:00
3:55 PM,48.2,33.3,56,30.27,10.0,South,6.9,-,N/A,,Overcast,190,2013-01-05 21:55:00
4:55 PM,46.9,33.4,59,30.27,10.0,South,6.9,-,N/A,,Mostly Cloudy,190,2013-01-05 22:55:00
5:55 PM,46.0,33.8,62,30.27,10.0,South,4.6,-,N/A,,Overcast,190,2013-01-05 23:55:00
6:55 PM,43.9,33.8,68,30.27,10.0,South,6.9,-,N/A,,Clear,190,2013-01-06 00:55:00
7:55 PM,41.5,33.4,73,30.27,10.0,SSW,4.6,-,N/A,,Clear,200,2013-01-06 01:55:00
8:55 PM,36.1,31.3,83,30.28,10.0,WSW,3.5,-,N/A,,Clear,240,2013-01-06 02:55:00
9:55 PM,32.0,29.1,89,30.28,10.0,Calm,Calm,-,N/A,,Clear,0,2013-01-06 03:55:00
10:55 PM,30.4,28.2,92,30.29,10.0,Calm,Calm,-,N/A,,Clear,0,2013-01-06 04:55:00
11:55 PM,29.7,27.9,93,30.29,10.0,Calm,Calm,-,N/A,,Clear,0,2013-01-06 05:55:00